^^
Saratoga-Weather Station Historical Data
Daily Summary for June 30, 2020 Units:  English    Metric   Both
Daily Weekly Monthly Yearly Custom
  High: Low: Average:
Temperature: 58.1 °F 54.9 °F 55.8 °F
Dew Point: 54.3 °F 52.9 °F 53.4 °F
Humidity: 94% 86% 92%
Wind Speed: 12.1mph 0mph 2.1mph
Wind Gust: 12mph - -
Wind- - WSW
Pressure: 30.2 in 30.1 in -
Precipitation: 0.03 in    
Historical Graphs
 
 
Tabular Data for June 30, 2020
Time Temperature Dew Point Pressure Wind Wind Speed Wind Gust Humidity Rainfall Rate (Hourly) solar
00:01 55 °F 53.1 °F 30.1 in NNW 2.9 mph 6 mph 93% 0 in 0 W/m2
00:06 55 °F 53.1 °F 30.1 in NNW 2.9 mph 5 mph 93% 0 in 0 W/m2
00:11 55 °F 53.1 °F 30.1 in NNE 2 mph 5 mph 93% 0 in 0 W/m2
00:16 55 °F 53.1 °F 30.1 in NW 8.9 mph 9 mph 93% 0 in 0 W/m2
00:21 55 °F 53.1 °F 30.1 in NW 2.9 mph 5 mph 93% 0 in 0 W/m2
00:26 55 °F 53.1 °F 30.1 in North 0.9 mph 5 mph 93% 0 in 0 W/m2
00:31 55 °F 53.1 °F 30.1 in NW 4 mph 7 mph 93% 0 in 0 W/m2
00:36 55.2 °F 53.2 °F 30.1 in WNW 2 mph 5 mph 93% 0 in 0 W/m2
00:41 55.2 °F 53.2 °F 30.1 in South 2.9 mph 7 mph 93% 0 in 0 W/m2
00:46 55.2 °F 53.2 °F 30.1 in East 0.9 mph 4 mph 93% 0 in 0 W/m2
00:51 55 °F 53.1 °F 30.1 in West 0.9 mph 11 mph 93% 0 in 0 W/m2
00:56 55 °F 53.1 °F 30.1 in WNW 2.9 mph 8 mph 93% 0 in 0 W/m2
01:02 55 °F 53.1 °F 30.1 in ESE 4 mph 11 mph 93% 0 in 0 W/m2
01:07 55 °F 53.4 °F 30.1 in NW 4 mph 5 mph 94% 0 in 0 W/m2
01:12 55 °F 53.4 °F 30.1 in NW 0.9 mph 7 mph 94% 0.01 in 0 W/m2
01:17 55 °F 53.4 °F 30.1 in NNE 0.9 mph 4 mph 94% 0.01 in 0 W/m2
01:22 55 °F 53.4 °F 30.1 in SSW 2 mph 4 mph 94% 0.01 in 0 W/m2
01:27 55 °F 53.4 °F 30.1 in NW 2.9 mph 9 mph 94% 0.01 in 0 W/m2
01:32 55.2 °F 53.6 °F 30.1 in Calm   4 mph 94% 0.01 in 0 W/m2
01:37 55.2 °F 53.6 °F 30.1 in North 2 mph 9 mph 94% 0.01 in 0 W/m2
01:42 55.2 °F 53.6 °F 30.1 in NNE 2 mph 4 mph 94% 0.01 in 0 W/m2
01:47 55.2 °F 53.6 °F 30.1 in North 2 mph 3 mph 94% 0.01 in 0 W/m2
01:52 55.2 °F 53.6 °F 30.1 in NW 4.9 mph 7 mph 94% 0.01 in 0 W/m2
01:57 55.2 °F 53.6 °F 30.1 in NNW 2 mph 4 mph 94% 0.01 in 0 W/m2
02:02 55.4 °F 53.8 °F 30.1 in WNW 2 mph 4 mph 94% 0.01 in 0 W/m2
02:07 55.6 °F 54 °F 30.1 in Calm   5 mph 94% 0.01 in 0 W/m2
02:12 55.6 °F 54 °F 30.1 in WNW 2.9 mph 4 mph 94% 0 in 0 W/m2
02:17 55.6 °F 53.6 °F 30.1 in SSW 0.9 mph 2 mph 93% 0 in 0 W/m2
02:22 55.8 °F 53.8 °F 30.1 in West 6 mph 6 mph 93% 0 in 0 W/m2
02:27 55.8 °F 53.8 °F 30.1 in West 6 mph 9 mph 93% 0 in 0 W/m2
02:32 55.9 °F 54 °F 30.1 in West 4 mph 10 mph 93% 0 in 0 W/m2
02:37 55.9 °F 54 °F 30.1 in WNW 2 mph 4 mph 93% 0 in 0 W/m2
02:42 55.9 °F 53.6 °F 30.1 in WSW 2 mph 8 mph 92% 0 in 0 W/m2
02:47 55.9 °F 53.6 °F 30.1 in West 2.9 mph 6 mph 92% 0 in 0 W/m2
02:52 55.9 °F 53.6 °F 30.1 in West 6.9 mph 8 mph 92% 0 in 0 W/m2
02:57 55.9 °F 53.6 °F 30.1 in West 2.9 mph 9 mph 92% 0 in 0 W/m2
03:02 55.9 °F 53.6 °F 30.1 in North 2 mph 10 mph 92% 0 in 0 W/m2
03:07 55.9 °F 53.6 °F 30.1 in Calm   2 mph 92% 0 in 0 W/m2
03:12 55.9 °F 53.6 °F 30.1 in NW 0.9 mph 10 mph 92% 0 in 0 W/m2
03:17 55.9 °F 53.6 °F 30.1 in North 0.9 mph 5 mph 92% 0 in 0 W/m2
03:22 55.9 °F 53.6 °F 30.1 in NNW 6 mph 11 mph 92% 0 in 0 W/m2
03:27 55.9 °F 53.6 °F 30.1 in NNE 0.9 mph 4 mph 92% 0 in 0 W/m2
03:32 55.9 °F 53.6 °F 30.1 in WSW 12.1 mph 12 mph 92% 0 in 0 W/m2
03:37 55.9 °F 53.6 °F 30.1 in West 8.9 mph 9 mph 92% 0 in 0 W/m2
03:42 55.9 °F 53.6 °F 30.1 in WNW 4 mph 4 mph 92% 0 in 0 W/m2
03:47 55.9 °F 53.6 °F 30.1 in East 2.9 mph 3 mph 92% 0 in 0 W/m2
03:52 55.9 °F 53.4 °F 30.1 in WNW 0.9 mph 3 mph 91% 0 in 0 W/m2
03:57 55.9 °F 53.4 °F 30.1 in WSW 2 mph 4 mph 91% 0 in 0 W/m2
04:02 55.9 °F 53.4 °F 30.1 in West 2 mph 4 mph 91% 0 in 0 W/m2
04:07 55.9 °F 53.4 °F 30.1 in West 2.9 mph 6 mph 91% 0 in 0 W/m2
04:12 55.9 °F 53.4 °F 30.1 in WSW 0.9 mph 4 mph 91% 0 in 0 W/m2
04:17 55.9 °F 53.4 °F 30.1 in North 2.9 mph 7 mph 91% 0 in 0 W/m2
04:22 55.9 °F 53.4 °F 30.1 in West 2 mph 7 mph 91% 0 in 0 W/m2
04:27 55.9 °F 53.4 °F 30.1 in West 0.9 mph 6 mph 91% 0 in 0 W/m2
04:32 55.9 °F 53.4 °F 30.1 in WSW 0.9 mph 7 mph 91% 0 in 0 W/m2
04:37 55.9 °F 53.4 °F 30.1 in NW 0.9 mph 2 mph 91% 0 in 0 W/m2
04:42 55.9 °F 53.4 °F 30.1 in Calm   3 mph 91% 0 in 0 W/m2
04:47 55.9 °F 53.6 °F 30.1 in WNW 4.9 mph 5 mph 92% 0 in 0 W/m2
04:52 55.9 °F 53.4 °F 30.2 in SSW 2 mph 8 mph 91% 0 in 0 W/m2
04:57 55.9 °F 53.4 °F 30.2 in NNW 4 mph 4 mph 91% 0 in 0 W/m2
05:02 55.9 °F 53.4 °F 30.2 in West 4 mph 8 mph 91% 0 in 0 W/m2
05:07 55.9 °F 53.4 °F 30.1 in WSW 0.9 mph 3 mph 91% 0 in 0 W/m2
05:12 55.9 °F 53.4 °F 30.1 in WSW 4.9 mph 9 mph 91% 0 in 0 W/m2
05:17 55.9 °F 53.4 °F 30.1 in NW 0.9 mph 7 mph 91% 0 in 0 W/m2
05:22 55.8 °F 53.2 °F 30.1 in Calm   2 mph 91% 0 in 0 W/m2
05:27 55.8 °F 53.2 °F 30.2 in WNW 0.9 mph 3 mph 91% 0 in 0 W/m2
05:32 55.6 °F 53.1 °F 30.2 in WSW 0.9 mph 3 mph 91% 0 in 0 W/m2
05:37 55.6 °F 53.2 °F 30.2 in WSW 2 mph 4 mph 92% 0 in 0 W/m2
05:42 55.8 °F 53.4 °F 30.2 in North 4 mph 7 mph 92% 0 in 0 W/m2
05:47 55.8 °F 53.4 °F 30.2 in West 2 mph 5 mph 92% 0 in 0 W/m2
05:52 55.6 °F 53.2 °F 30.2 in Calm   3 mph 92% 0 in 0 W/m2
05:58 55.4 °F 53.1 °F 30.2 in WNW 2 mph 3 mph 92% 0 in 0 W/m2
06:03 55.2 °F 53.2 °F 30.2 in NW 2 mph 3 mph 93% 0.01 in 0 W/m2
06:08 55 °F 53.1 °F 30.2 in NNW 2 mph 4 mph 93% 0.01 in 0 W/m2
06:13 54.9 °F 52.9 °F 30.2 in North 0.9 mph 3 mph 93% 0.02 in 0 W/m2
06:18 54.9 °F 53.2 °F 30.2 in WNW 2 mph 3 mph 94% 0.02 in 0 W/m2
06:23 54.9 °F 53.2 °F 30.2 in West 2.9 mph 6 mph 94% 0.02 in 0 W/m2
06:28 54.9 °F 53.2 °F 30.2 in Calm   4 mph 94% 0.02 in 0 W/m2
06:33 54.9 °F 53.2 °F 30.2 in WNW 0.9 mph 3 mph 94% 0.02 in 0 W/m2
06:38 54.9 °F 53.2 °F 30.2 in WNW 6.9 mph 10 mph 94% 0.02 in 0 W/m2
06:43 54.9 °F 53.2 °F 30.2 in NW 2 mph 4 mph 94% 0.02 in 0 W/m2
06:48 54.9 °F 53.2 °F 30.2 in West 2.9 mph 10 mph 94% 0.02 in 0 W/m2
06:53 54.9 °F 53.2 °F 30.2 in East 0.9 mph 3 mph 94% 0.02 in 0 W/m2
06:58 54.9 °F 53.2 °F 30.2 in NW 6 mph 8 mph 94% 0.02 in 0 W/m2
07:03 54.9 °F 53.2 °F 30.2 in NNE 2 mph 3 mph 94% 0.02 in 0 W/m2
07:08 54.9 °F 53.2 °F 30.2 in SE 8 mph 8 mph 94% 0.02 in 0 W/m2
07:13 54.9 °F 53.2 °F 30.2 in East 0.9 mph 2 mph 94% 0.01 in 0 W/m2
07:18 54.9 °F 53.2 °F 30.2 in WSW 0.9 mph 4 mph 94% 0.01 in 0 W/m2
07:23 54.9 °F 53.2 °F 30.2 in West 2.9 mph 8 mph 94% 0.01 in 0 W/m2
07:28 54.9 °F 52.9 °F 30.2 in NW 2.9 mph 8 mph 93% 0.01 in 5 W/m2
07:33 54.9 °F 52.9 °F 30.2 in SW 2.9 mph 6 mph 93% 0 in 5 W/m2
07:38 54.9 °F 52.9 °F 30.2 in North 2 mph 4 mph 93% 0 in 7 W/m2
07:43 54.9 °F 52.9 °F 30.2 in West 2 mph 6 mph 93% 0 in 7 W/m2
07:48 55 °F 53.1 °F 30.2 in NW 4 mph 4 mph 93% 0 in 9 W/m2
07:53 55 °F 53.1 °F 30.2 in South 2.9 mph 3 mph 93% 0 in 9 W/m2
07:58 55 °F 53.1 °F 30.2 in NW 0.9 mph 7 mph 93% 0 in 14 W/m2
08:03 55 °F 53.1 °F 30.2 in Calm   2 mph 93% 0 in 16 W/m2
08:08 55 °F 53.1 °F 30.2 in SW 0.9 mph 5 mph 93% 0 in 25 W/m2
08:13 55 °F 53.1 °F 30.2 in WSW 6.9 mph 11 mph 93% 0 in 21 W/m2
08:18 55.2 °F 53.2 °F 30.2 in NW 0.9 mph 3 mph 93% 0 in 21 W/m2
08:23 55.2 °F 53.2 °F 30.2 in West 0.9 mph 11 mph 93% 0 in 19 W/m2
08:28 55.2 °F 53.2 °F 30.2 in NW 2.9 mph 8 mph 93% 0 in 9 W/m2
08:33 55.2 °F 52.9 °F 30.2 in South 2 mph 4 mph 92% 0 in 12 W/m2
08:38 55.2 °F 52.9 °F 30.2 in Calm   8 mph 92% 0 in 25 W/m2
08:43 55.2 °F 52.9 °F 30.2 in Calm   3 mph 92% 0 in 46 W/m2
08:48 55.2 °F 52.9 °F 30.2 in NW 0.9 mph 12 mph 92% 0 in 40 W/m2
08:53 55.2 °F 53.2 °F 30.2 in Calm   3 mph 93% 0 in 19 W/m2
08:58 55.2 °F 53.2 °F 30.2 in WNW 0.9 mph 10 mph 93% 0 in 39 W/m2
09:03 55 °F 53.1 °F 30.2 in Calm   4 mph 93% 0 in 37 W/m2
09:08 55 °F 53.1 °F 30.2 in NW 2 mph 8 mph 93% 0 in 26 W/m2
09:13 55 °F 53.1 °F 30.2 in Calm   3 mph 93% 0 in 32 W/m2
09:18 55 °F 53.1 °F 30.2 in WNW 0.9 mph 3 mph 93% 0 in 25 W/m2
09:23 55 °F 53.1 °F 30.2 in NW 0.9 mph 2 mph 93% 0 in 49 W/m2
09:28 55 °F 53.1 °F 30.2 in WNW 0.9 mph 6 mph 93% 0 in 56 W/m2
09:33 55.2 °F 53.2 °F 30.2 in ENE 4 mph 5 mph 93% 0 in 60 W/m2
09:38 55.2 °F 53.2 °F 30.2 in Calm   2 mph 93% 0 in 60 W/m2
09:43 55.2 °F 53.2 °F 30.2 in WNW 2 mph 7 mph 93% 0 in 65 W/m2
09:48 55.4 °F 53.4 °F 30.2 in WNW 2 mph 6 mph 93% 0 in 86 W/m2
09:53 55.6 °F 53.2 °F 30.2 in WNW 0.9 mph 5 mph 92% 0 in 86 W/m2
09:58 55.8 °F 53.4 °F 30.2 in WNW 0.9 mph 4 mph 92% 0 in 95 W/m2
10:03 55.8 °F 53.4 °F 30.2 in NW 2 mph 3 mph 92% 0 in 91 W/m2
10:08 55.8 °F 53.4 °F 30.2 in WNW 2 mph 5 mph 92% 0 in 114 W/m2
10:13 55.9 °F 53.6 °F 30.2 in Calm   2 mph 92% 0 in 81 W/m2
10:18 55.9 °F 53.6 °F 30.2 in Calm   7 mph 92% 0 in 54 W/m2
10:23 56.1 °F 53.6 °F 30.2 in North 0.9 mph 3 mph 91% 0 in 62 W/m2
10:28 56.1 °F 53.6 °F 30.2 in Calm   4 mph 91% 0 in 63 W/m2
10:33 56.1 °F 53.6 °F 30.2 in Calm   2 mph 91% 0 in 33 W/m2
10:38 56.1 °F 53.6 °F 30.2 in Calm   2 mph 91% 0 in 60 W/m2
10:43 56.1 °F 53.6 °F 30.2 in Calm   1 mph 91% 0 in 72 W/m2
10:48 56.1 °F 53.6 °F 30.2 in NW 2 mph 7 mph 91% 0 in 113 W/m2
10:53 56.1 °F 53.6 °F 30.2 in WNW 2.9 mph 7 mph 91% 0 in 56 W/m2
10:59 56.3 °F 53.4 °F 30.2 in SE 4 mph 8 mph 90% 0 in 83 W/m2
11:04 56.5 °F 53.6 °F 30.2 in NW 2.9 mph 6 mph 90% 0 in 104 W/m2
11:09 56.5 °F 53.6 °F 30.2 in WNW 2.9 mph 8 mph 90% 0 in 86 W/m2
11:14 56.3 °F 53.8 °F 30.2 in West 2 mph 4 mph 91% 0 in 153 W/m2
11:19 56.3 °F 53.8 °F 30.2 in WNW 2 mph 3 mph 91% 0 in 91 W/m2
11:24 56.3 °F 53.8 °F 30.2 in West 2 mph 9 mph 91% 0 in 165 W/m2
11:29 56.3 °F 53.8 °F 30.2 in NNW 2 mph 2 mph 91% 0 in 155 W/m2
11:34 56.5 °F 54.1 °F 30.2 in WSW 2.9 mph 8 mph 92% 0 in 162 W/m2
11:39 56.5 °F 54 °F 30.2 in North 2 mph 7 mph 91% 0 in 163 W/m2
11:44 56.5 °F 54 °F 30.2 in NW 0.9 mph 6 mph 91% 0 in 130 W/m2
11:49 56.7 °F 54.1 °F 30.2 in WNW 0.9 mph 6 mph 91% 0 in 130 W/m2
11:54 56.8 °F 54.3 °F 30.2 in SW 0.9 mph 8 mph 91% 0 in 188 W/m2
11:59 56.8 °F 54 °F 30.2 in NW 0.9 mph 4 mph 90% 0 in 113 W/m2
12:04 57 °F 54.1 °F 30.2 in NNW 2 mph 8 mph 90% 0 in 84 W/m2
12:09 57 °F 53.8 °F 30.2 in West 0.9 mph 3 mph 89% 0 in 86 W/m2
12:14 57 °F 53.8 °F 30.2 in West 2 mph 7 mph 89% 0 in 88 W/m2
12:19 57 °F 53.8 °F 30.2 in West 2 mph 3 mph 89% 0 in 171 W/m2
12:24 57 °F 53.8 °F 30.2 in West 2.9 mph 3 mph 89% 0 in 109 W/m2
12:29 57 °F 53.8 °F 30.2 in WNW 2 mph 4 mph 89% 0 in 169 W/m2
12:34 57 °F 54.1 °F 30.2 in NW 2 mph 3 mph 90% 0 in 69 W/m2
12:39 57 °F 53.8 °F 30.2 in NW 0.9 mph 3 mph 89% 0 in 81 W/m2
12:44 57 °F 53.8 °F 30.2 in West 2 mph 6 mph 89% 0 in 76 W/m2
12:49 56.8 °F 53.6 °F 30.2 in WNW 4 mph 11 mph 89% 0 in 74 W/m2
12:54 56.8 °F 53.6 °F 30.2 in NNW 0.9 mph 2 mph 89% 0 in 118 W/m2
12:59 56.7 °F 53.8 °F 30.2 in NW 0.9 mph 11 mph 90% 0 in 113 W/m2
13:04 56.8 °F 54 °F 30.2 in WSW 6.9 mph 10 mph 90% 0 in 155 W/m2
13:09 56.8 °F 53.6 °F 30.2 in WNW 2 mph 9 mph 89% 0 in 127 W/m2
13:14 57 °F 53.8 °F 30.2 in NW 2.9 mph 10 mph 89% 0 in 127 W/m2
13:19 57.2 °F 53.6 °F 30.2 in Calm   5 mph 88% 0 in 139 W/m2
13:24 57.4 °F 53.8 °F 30.2 in WNW 2.9 mph 8 mph 88% 0 in 142 W/m2
13:29 57.6 °F 54 °F 30.2 in South 0.9 mph 7 mph 88% 0 in 183 W/m2
13:34 57.7 °F 54.1 °F 30.2 in Calm   8 mph 88% 0 in 135 W/m2
13:39 57.9 °F 54.1 °F 30.2 in West 2 mph 10 mph 87% 0 in 95 W/m2
13:44 57.9 °F 53.8 °F 30.2 in West 0.9 mph 4 mph 86% 0 in 114 W/m2
13:49 57.9 °F 53.8 °F 30.2 in WNW 4.9 mph 6 mph 86% 0 in 120 W/m2
13:54 57.9 °F 53.8 °F 30.2 in Calm   4 mph 86% 0 in 121 W/m2
13:59 57.9 °F 53.8 °F 30.2 in West 0.9 mph 6 mph 86% 0 in 111 W/m2
14:04 57.9 °F 53.8 °F 30.2 in South 0.9 mph 4 mph 86% 0 in 111 W/m2
14:09 57.9 °F 53.8 °F 30.2 in NNW 0.9 mph 4 mph 86% 0 in 109 W/m2
14:14 57.9 °F 54.1 °F 30.2 in WNW 2.9 mph 4 mph 87% 0 in 107 W/m2
14:19 57.9 °F 53.8 °F 30.2 in SSW 0.9 mph 5 mph 86% 0 in 118 W/m2
14:24 58.1 °F 54.3 °F 30.2 in Calm   1 mph 87% 0 in 156 W/m2
Juneau County Weather
Compliments of Weather Underground - 2 mb